METAR AND TAF INFORMATION
METAR FOR EHEH
ADDS - METARS form results

(0835 UTC 25 January 2022)
Data provider http://aviationweather.gov/metar/data/
 
METAR text: EHEH 250825Z AUTO VRB03KT 9000 BR OVC014 03/00 Q1034 GRN BECMG OVC015
Conditions at: EHEH (EINDHOVEN RNLAFB, NL) observed 0825 UTC 25 January 2022
Temperature: 3.0°C (37°F)
Dewpoint: 0.0°C (32°F) [RH = 81%]
Pressure (altimeter): 30.53 inches Hg (1034.0 mb)
Winds: variable direction winds at 3 MPH (3 knots; 1.5 m/s)
Visibility: 6 miles ( 9 km)
Ceiling: 1400 feet AGL
Clouds: overcast cloud deck at 1400 feet AGL
Weather: BR  (mist)

METAR text: EHEH 250804Z AUTO VRB01KT 9999 OVC014 03/01 Q1034 GRN BECMG OVC015
Conditions at: EHEH (EINDHOVEN RNLAFB, NL) observed 0804 UTC 25 January 2022
Temperature: 3.0°C (37°F)
Dewpoint: 1.0°C (34°F) [RH = 87%]
Pressure (altimeter): 30.53 inches Hg (1034.0 mb)
Winds: variable direction winds at 1 MPH (1 knots; 0.5 m/s)
Visibility: 6 or more miles (10+ km)
Ceiling: 1400 feet AGL
Clouds: overcast cloud deck at 1400 feet AGL
Weather: no significant weather observed at this time

METAR text: EHEH 250800Z AUTO VRB01KT 9999 OVC015 03/00 Q1034 WHT BECMG OVC015
Conditions at: EHEH (EINDHOVEN RNLAFB, NL) observed 0800 UTC 25 January 2022
Temperature: 3.0°C (37°F)
Dewpoint: 0.0°C (32°F) [RH = 81%]
Pressure (altimeter): 30.53 inches Hg (1034.0 mb)
Winds: variable direction winds at 1 MPH (1 knots; 0.5 m/s)
Visibility: 6 or more miles (10+ km)
Ceiling: 1500 feet AGL
Clouds: overcast cloud deck at 1500 feet AGL
Weather: no significant weather observed at this time

METAR text: EHEH 250755Z AUTO VRB02KT 9999 OVC014 03/00 Q1034 GRN BECMG OVC015
Conditions at: EHEH (EINDHOVEN RNLAFB, NL) observed 0755 UTC 25 January 2022
Temperature: 3.0°C (37°F)
Dewpoint: 0.0°C (32°F) [RH = 81%]
Pressure (altimeter): 30.53 inches Hg (1034.0 mb)
Winds: variable direction winds at 2 MPH (2 knots; 1.0 m/s)
Visibility: 6 or more miles (10+ km)
Ceiling: 1400 feet AGL
Clouds: overcast cloud deck at 1400 feet AGL
Weather: no significant weather observed at this time

METAR text: EHEH 250736Z AUTO 11004KT 020V110 8000 BR OVC014 03/00 Q1034 GRN BECMG OVC015
Conditions at: EHEH (EINDHOVEN RNLAFB, NL) observed 0736 UTC 25 January 2022
Temperature: 3.0°C (37°F)
Dewpoint: 0.0°C (32°F) [RH = 81%]
Pressure (altimeter): 30.53 inches Hg (1034.0 mb)
Winds: from the ESE (110 degrees) at 5 MPH (4 knots; 2.1 m/s)
Visibility: 5 miles ( 8 km)
Ceiling: 1400 feet AGL
Clouds: overcast cloud deck at 1400 feet AGL
Weather: BR  (mist)

Forecast for: EHEH (EINDHOVEN RNLAFB, NL)
Text: TAF EHEH 250505Z 2506/2612 VRB02KT 5000 OVC016
Forecast period: 0600 UTC 25 January 2022 to 0300 UTC 26 January 2022
Forecast type: FROM: standard forecast or significant change
Winds: variable direction winds at 2 MPH (2 knots; 1.0 m/s)
Visibility: 3 miles (5 km)
Ceiling: 1600 feet AGL
Clouds: overcast cloud deck at 1600 feet AGL
Weather: no significant weather forecast for this period
Text: TEMPO 2506/2511 2500 BR BKN014
Forecast period: 0600 to 1100 UTC 25 January 2022
Forecast type: TEMPORARY: The following changes expected for less than half the time period
Visibility: 1.55 miles (2.49 km)
Ceiling: 1400 feet AGL
Clouds: broken clouds at 1400 feet AGL
Weather: BR  (mist)
Text: TEMPO 2510/2518 BKN020
Forecast period: 1000 to 1800 UTC 25 January 2022
Forecast type: TEMPORARY: The following changes expected for less than half the time period
Visibility: missing
Ceiling: 2000 feet AGL
Clouds: broken clouds at 2000 feet AGL
Weather: no significant weather forecast for this period
Text: BECMG 2603/2606 22006KT
Forecast period: 0300 to 1200 UTC 26 January 2022
Forecast type: BECOMING: Conditions expected to become as follows by 0600 UTC 26 January 2022
Winds: from the SW (220 degrees) at 7 MPH (6 knots; 3.1 m/s)
Visibility: 3 miles (5 km)
Ceiling: 1600 feet AGL
Clouds: overcast cloud deck at 1600 feet AGL
Weather: no significant weather forecast for this period
Text: PROB40
Forecast period: 0600 to 1000 UTC 26 January 2022
Forecast type: TEMPORARY: The following changes expected for less than half the time period
Visibility: missing
Ceiling: 1000 feet AGL
Clouds: scattered clouds at 700 feet AGL
broken clouds at 1000 feet AGL
Weather: no significant weather forecast for this period

 AIRPORT MAP

 RUNWAY INFORMATION
Runway 03 Runway length 9843 ft Runway width 148 ft
Runway elevation 73 ft Runway displaced threshold 821 ft Runway heading 35
Runway 21 Runway length 9843 ft Runway width 148 ft
Runway elevation 67 ft Runway displaced threshold 821 ft Runway heading 215

 AIRPORT FREQUENCIES
Type APP Name APP Frequency 123.175 MHZ
Type ATIS Name ATIS Frequency 126.025 MHZ
Type DIR Name DIRECTOR Frequency 124.525 MHZ
Type GND Name GND Frequency 121.925 MHZ
Type TWR Name TWR Frequency 131 MHZ

 AIRPORT NEAR NAVIGATION AIDS
Type NDB Name Eindhoven Frequency 397 KHZ
Type TACAN Name Eindhoven Frequency 117200 KHZ